ZSIOA FAGM-FAGM

Flight info

Callsign ZSIOA
Flight time 0h 15m
Altitude 6400
Route DCT
Aircraft C210/L-SDFG/C

Departure

Time 2026-04-21 18:38
Airport Rand Airport (FAGM)

Arrival

Time 2026-04-21 18:53
Airport Rand Airport (FAGM)
Time Latitude Longitude Altitude Speed Heading
2026-04-21 18:22 -26.24014 28.15332 5488 ft 0 kts 267°
2026-04-21 18:28 -26.24014 28.15330 5486 ft 0 kts 278°
2026-04-21 18:31 -26.24035 28.15310 5486 ft 11 kts 219°
2026-04-21 18:31 -26.24075 28.15207 5486 ft 20 kts 263°
2026-04-21 18:31 -26.24115 28.15146 5486 ft 13 kts 151°
2026-04-21 18:32 -26.24200 28.15194 5486 ft 11 kts 152°
2026-04-21 18:32 -26.24282 28.15233 5488 ft 14 kts 148°
2026-04-21 18:32 -26.24387 28.15281 5488 ft 18 kts 159°
2026-04-21 18:32 -26.24512 28.15341 5489 ft 18 kts 155°
2026-04-21 18:33 -26.24578 28.15405 5488 ft 12 kts 151°
2026-04-21 18:33 -26.24628 28.15418 5489 ft 0 kts 187°
2026-04-21 18:35 -26.24632 28.15417 5489 ft 5 kts 188°
2026-04-21 18:35 -26.24693 28.15429 5490 ft 12 kts 160°
2026-04-21 18:36 -26.24724 28.15407 5491 ft 0 kts 228°
2026-04-21 18:36 -26.24726 28.15405 5491 ft 3 kts 223°
2026-04-21 18:36 -26.24726 28.15341 5491 ft 18 kts 337°
2026-04-21 18:37 -26.24516 28.15238 5490 ft 55 kts 335°
2026-04-21 18:37 -26.24040 28.15016 5504 ft 86 kts 335°
2026-04-21 18:37 -26.23449 28.14755 5657 ft 97 kts 340°
2026-04-21 18:37 -26.22801 28.14526 5946 ft 100 kts 345°
2026-04-21 18:38 -26.22102 28.14320 6187 ft 107 kts 342°
2026-04-21 18:38 -26.21647 28.13701 6323 ft 121 kts 278°
2026-04-21 18:38 -26.21740 28.12752 6463 ft 128 kts 253°
2026-04-21 18:38 -26.22100 28.11794 6501 ft 141 kts 245°
2026-04-21 18:39 -26.22783 28.10970 6406 ft 158 kts 207°
2026-04-21 18:39 -26.23775 28.10641 6651 ft 141 kts 174°
2026-04-21 18:39 -26.24741 28.10764 6608 ft 145 kts 166°
2026-04-21 18:39 -26.25723 28.10947 6636 ft 137 kts 166°
2026-04-21 18:40 -26.26685 28.11134 6499 ft 134 kts 156°
2026-04-21 18:40 -26.27232 28.11837 6408 ft 116 kts 100°
2026-04-21 18:40 -26.27195 28.12409 6282 ft 106 kts 69°
2026-04-21 18:40 -26.26885 28.13366 6124 ft 93 kts 68°
2026-04-21 18:41 -26.26666 28.14062 5821 ft 105 kts 67°
2026-04-21 18:41 -26.26401 28.14734 5825 ft 87 kts 59°
2026-04-21 18:41 -26.26101 28.15318 5805 ft 87 kts 58°
2026-04-21 18:41 -26.25674 28.15792 5708 ft 93 kts 16°
2026-04-21 18:42 -26.25080 28.15484 5559 ft 96 kts 342°
2026-04-21 18:42 -26.24495 28.15232 5497 ft 82 kts 337°
2026-04-21 18:42 -26.24005 28.15003 5488 ft 81 kts 333°
2026-04-21 18:42 -26.23439 28.14723 5599 ft 93 kts 336°
2026-04-21 18:43 -26.22892 28.14396 5895 ft 90 kts 338°
2026-04-21 18:43 -26.22304 28.14046 6043 ft 100 kts 322°
2026-04-21 18:43 -26.21951 28.13304 6162 ft 116 kts 289°
2026-04-21 18:43 -26.22070 28.12404 6324 ft 120 kts 249°
2026-04-21 18:44 -26.22411 28.11495 6337 ft 134 kts 237°
2026-04-21 18:44 -26.23255 28.11077 6356 ft 140 kts 173°
2026-04-21 18:44 -26.24116 28.11488 6435 ft 132 kts 144°
2026-04-21 18:44 -26.24931 28.11991 6408 ft 134 kts 146°
2026-04-21 18:45 -26.25723 28.12452 6306 ft 122 kts 149°
2026-04-21 18:45 -26.26453 28.12843 6208 ft 115 kts 149°
2026-04-21 18:45 -26.27155 28.13237 6084 ft 111 kts 147°
2026-04-21 18:45 -26.27162 28.13905 5962 ft 93 kts 60°
2026-04-21 18:46 -26.26784 28.14502 5901 ft 94 kts 49°
2026-04-21 18:46 -26.26346 28.15028 5894 ft 93 kts 46°
2026-04-21 18:46 -26.25893 28.15527 5743 ft 86 kts 34°
2026-04-21 18:46 -26.25300 28.15597 5600 ft 81 kts 343°
2026-04-21 18:47 -26.24758 28.15355 5510 ft 82 kts 340°
2026-04-21 18:47 -26.24276 28.15127 5486 ft 75 kts 338°
2026-04-21 18:47 -26.23754 28.14877 5520 ft 85 kts 341°
2026-04-21 18:47 -26.23207 28.14649 5701 ft 81 kts 347°
2026-04-21 18:48 -26.22652 28.14445 5795 ft 90 kts 348°
2026-04-21 18:48 -26.22096 28.14121 5939 ft 98 kts 320°
2026-04-21 18:48 -26.21733 28.13410 6034 ft 114 kts 289°
2026-04-21 18:48 -26.21794 28.12520 6231 ft 118 kts 253°
2026-04-21 18:49 -26.22027 28.11657 6393 ft 119 kts 258°
2026-04-21 18:49 -26.22590 28.11004 6370 ft 127 kts 191°
2026-04-21 18:49 -26.23159 28.11030 6415 ft 122 kts 160°
2026-04-21 18:49 -26.24242 28.11414 6389 ft 119 kts 153°
2026-04-21 18:50 -26.24997 28.11745 6310 ft 115 kts 152°
2026-04-21 18:50 -26.25731 28.12075 6187 ft 115 kts 150°
2026-04-21 18:50 -26.26422 28.12500 6068 ft 108 kts 132°
2026-04-21 18:50 -26.26792 28.13169 5953 ft 100 kts 97°
2026-04-21 18:51 -26.26718 28.13866 5963 ft 85 kts 73°
2026-04-21 18:51 -26.26536 28.14487 5912 ft 83 kts 70°
2026-04-21 18:51 -26.26338 28.15077 5889 ft 81 kts 66°
2026-04-21 18:51 -26.26062 28.15621 5814 ft 84 kts 43°
2026-04-21 18:52 -26.25516 28.15699 5667 ft 86 kts 348°
2026-04-21 18:52 -26.24985 28.15459 5569 ft 83 kts 336°
2026-04-21 18:52 -26.24451 28.15212 5494 ft 79 kts 336°
2026-04-21 18:52 -26.24004 28.14999 5488 ft 55 kts 333°
2026-04-21 18:53 -26.23742 28.14877 5491 ft 42 kts 338°
2026-04-21 18:53 -26.23576 28.14797 5489 ft 9 kts 10°
2026-04-21 18:53 -26.23576 28.14858 5486 ft 16 kts 129°
2026-04-21 18:53 -26.23691 28.14957 5486 ft 23 kts 155°
2026-04-21 18:54 -26.23831 28.15022 5486 ft 24 kts 158°
2026-04-21 18:54 -26.24042 28.15119 5486 ft 36 kts 142°
2026-04-21 18:54 -26.24061 28.15322 5487 ft 16 kts 78°
2026-04-21 18:54 -26.24007 28.15359 5486 ft 7 kts 297°
2026-04-21 18:55 -26.24007 28.15354 5486 ft 2 kts 264°
2026-04-21 18:55 -26.24007 28.15350 5486 ft 0 kts 260°